^^
Your Local Weather - Clay, NY Station Historical Data
Daily Summary for April 17, 2017 Units:  English    Metric   Both
« Previous Day
Next Day »
Daily Weekly Monthly Yearly Custom
  High: Low: Average:
Temperature: 61.6 °F 39.3 °F 50.2 °F
Dew Point: 53.1 °F 33.7 °F 41.5 °F
Humidity: 89% 53% 73%
Wind Speed: 7.0mph 0.0mph 3.1mph
Wind Gust: 12.0mph - -
Wind- - WNW
Pressure: 30.21 in 29.79 in -
Precipitation: 0.04 in    
Historical Graphs
 
 
Tabular Data for April 17, 2017
Time Temperature Dew Point Pressure Wind Wind Speed Wind Gust Humidity Rainfall Rate (Hourly) solar
00:00 61.6 °F 52.9 °F 29.79 in WNW 3.0 mph 7.0 mph 73% 0.53 in 0 W/m2
00:06 58.9 °F 53.1 °F 29.80 in NW 7.0 mph 7.0 mph 81% 0.14 in 0 W/m2
00:12 57.7 °F 52.9 °F 29.80 in WNW 5.0 mph 6.0 mph 84% 0.08 in 0 W/m2
00:18 57.0 °F 52.9 °F 29.81 in WNW 5.0 mph 8.0 mph 86% 0.04 in 0 W/m2
00:24 56.6 °F 52.8 °F 29.82 in WNW 5.0 mph 5.0 mph 87% 0.04 in 0 W/m2
00:30 56.3 °F 52.5 °F 29.82 in West 4.0 mph 5.0 mph 87% 0.11 in 0 W/m2
00:36 56.2 °F 52.7 °F 29.82 in WNW 4.0 mph 5.0 mph 88% 0.05 in 0 W/m2
00:42 56.1 °F 52.6 °F 29.82 in WNW 4.0 mph 6.0 mph 88% 0.05 in 0 W/m2
00:48 56.1 °F 52.9 °F 29.82 in NW 4.0 mph 6.0 mph 89% 0.05 in 0 W/m2
00:56 56.0 °F 52.8 °F 29.82 in NW 3.0 mph 4.0 mph 89% 0.00 in 0 W/m2
01:03 55.9 °F 52.7 °F 29.82 in NW 2.0 mph 6.0 mph 89% 0.00 in 0 W/m2
01:08 55.7 °F 52.5 °F 29.82 in West 3.0 mph 6.0 mph 89% 0.00 in 0 W/m2
01:20 55.6 °F 52.4 °F 29.82 in NW 2.0 mph 3.0 mph 89% 0.00 in 0 W/m2
01:26 55.5 °F 52.3 °F 29.82 in NW 3.0 mph 3.0 mph 89% 0.00 in 0 W/m2
01:32 55.4 °F 52.2 °F 29.82 in WNW 2.0 mph 5.0 mph 89% 0.00 in 0 W/m2
01:38 55.3 °F 52.1 °F 29.82 in WNW 3.0 mph 5.0 mph 89% 0.00 in 0 W/m2
01:44 55.3 °F 52.1 °F 29.82 in WNW 3.0 mph 4.0 mph 89% 0.00 in 0 W/m2
01:50 55.2 °F 52.0 °F 29.82 in WNW 3.0 mph 3.0 mph 89% 0.00 in 0 W/m2
01:56 55.1 °F 51.9 °F 29.82 in WNW 2.0 mph 3.0 mph 89% 0.00 in 0 W/m2
02:02 54.9 °F 51.4 °F 29.82 in WNW 2.0 mph 3.0 mph 88% 0.00 in 0 W/m2
02:08 54.7 °F 51.2 °F 29.82 in WNW 3.0 mph 3.0 mph 88% 0.00 in 0 W/m2
02:14 54.6 °F 51.1 °F 29.82 in WNW 3.0 mph 3.0 mph 88% 0.00 in 0 W/m2
02:20 54.5 °F 51.0 °F 29.82 in West 3.0 mph 3.0 mph 88% 0.00 in 0 W/m2
02:26 54.4 °F 50.6 °F 29.82 in WNW 3.0 mph 5.0 mph 87% 0.00 in 0 W/m2
02:32 54.3 °F 50.5 °F 29.83 in West 3.0 mph 3.0 mph 87% 0.00 in 0 W/m2
02:38 54.1 °F 50.3 °F 29.83 in WNW 3.0 mph 5.0 mph 87% 0.00 in 0 W/m2
02:44 53.9 °F 49.8 °F 29.83 in WNW 5.0 mph 6.0 mph 86% 0.00 in 0 W/m2
02:50 53.6 °F 49.2 °F 29.83 in WNW 5.0 mph 5.0 mph 85% 0.00 in 0 W/m2
02:56 53.3 °F 48.9 °F 29.83 in WNW 4.0 mph 10.0 mph 85% 0.00 in 0 W/m2
03:02 53.0 °F 48.6 °F 29.84 in WNW 4.0 mph 5.0 mph 85% 0.00 in 0 W/m2
03:08 52.8 °F 48.4 °F 29.84 in NW 5.0 mph 6.0 mph 85% 0.00 in 0 W/m2
03:14 52.5 °F 48.1 °F 29.85 in WNW 5.0 mph 6.0 mph 85% 0.00 in 0 W/m2
03:20 52.2 °F 47.8 °F 29.85 in WNW 5.0 mph 5.0 mph 85% 0.00 in 0 W/m2
03:26 52.0 °F 47.6 °F 29.85 in NW 4.0 mph 5.0 mph 85% 0.00 in 0 W/m2
03:32 51.7 °F 47.3 °F 29.85 in WNW 4.0 mph 4.0 mph 85% 0.00 in 0 W/m2
03:38 51.6 °F 47.2 °F 29.86 in WNW 3.0 mph 4.0 mph 85% 0.00 in 0 W/m2
03:44 51.6 °F 47.5 °F 29.86 in WNW 3.0 mph 3.0 mph 86% 0.00 in 0 W/m2
03:50 51.5 °F 47.1 °F 29.87 in SW 3.0 mph 3.0 mph 85% 0.00 in 0 W/m2
03:56 51.3 °F 46.9 °F 29.87 in WNW 3.0 mph 7.0 mph 85% 0.00 in 0 W/m2
04:02 51.2 °F 46.8 °F 29.87 in NW 4.0 mph 7.0 mph 85% 0.00 in 0 W/m2
04:08 51.1 °F 46.7 °F 29.87 in West 4.0 mph 7.0 mph 85% 0.00 in 0 W/m2
04:14 50.9 °F 46.6 °F 29.87 in WNW 4.0 mph 5.0 mph 85% 0.00 in 0 W/m2
04:20 50.8 °F 46.8 °F 29.87 in WSW 3.0 mph 3.0 mph 86% 0.00 in 0 W/m2
04:26 50.8 °F 46.8 °F 29.88 in WNW 3.0 mph 4.0 mph 86% 0.00 in 0 W/m2
04:32 50.7 °F 46.7 °F 29.88 in NW 3.0 mph 5.0 mph 86% 0.00 in 0 W/m2
04:38 50.6 °F 46.6 °F 29.88 in West 3.0 mph 5.0 mph 86% 0.00 in 0 W/m2
04:44 50.5 °F 46.5 °F 29.88 in WNW 3.0 mph 5.0 mph 86% 0.00 in 0 W/m2
04:50 50.3 °F 46.0 °F 29.88 in WNW 3.0 mph 4.0 mph 85% 0.00 in 0 W/m2
04:56 50.2 °F 45.9 °F 29.88 in WNW 4.0 mph 4.0 mph 85% 0.00 in 0 W/m2
05:02 50.1 °F 45.8 °F 29.88 in WNW 2.0 mph 3.0 mph 85% 0.00 in 0 W/m2
05:08 49.9 °F 45.6 °F 29.88 in WNW 2.0 mph 3.0 mph 85% 0.00 in 0 W/m2
05:14 49.9 °F 45.6 °F 29.88 in WNW 2.0 mph 2.0 mph 85% 0.00 in 0 W/m2
05:22 49.9 °F 45.6 °F 29.89 in WSW 3.0 mph 6.0 mph 85% 0.00 in 0 W/m2
05:28 49.8 °F 45.5 °F 29.90 in WSW 2.0 mph 6.0 mph 85% 0.00 in 0 W/m2
05:34 49.8 °F 45.5 °F 29.90 in WNW 2.0 mph 2.0 mph 85% 0.00 in 0 W/m2
05:40 49.8 °F 45.5 °F 29.90 in WNW 2.0 mph 3.0 mph 85% 0.00 in 0 W/m2
05:46 49.6 °F 45.3 °F 29.90 in West 2.0 mph 3.0 mph 85% 0.00 in 0 W/m2
05:52 49.6 °F 45.3 °F 29.90 in WSW 2.0 mph 3.0 mph 85% 0.00 in 0 W/m2
05:58 49.5 °F 45.2 °F 29.90 in WNW 3.0 mph 6.0 mph 85% 0.00 in 0 W/m2
06:04 49.4 °F 45.1 °F 29.90 in West 3.0 mph 4.0 mph 85% 0.00 in 0 W/m2
06:10 49.3 °F 45.0 °F 29.90 in West 3.0 mph 4.0 mph 85% 0.00 in 0 W/m2
06:16 49.1 °F 44.8 °F 29.90 in WSW 2.0 mph 4.0 mph 85% 0.00 in 0 W/m2
06:22 49.0 °F 44.7 °F 29.91 in WSW 2.0 mph 2.0 mph 85% 0.00 in 7 W/m2
06:28 48.9 °F 44.6 °F 29.91 in West 1.0 mph 2.0 mph 85% 0.00 in 12 W/m2
06:34 48.8 °F 44.5 °F 29.91 in WNW 2.0 mph 2.0 mph 85% 0.00 in 16 W/m2
06:40 48.8 °F 44.8 °F 29.91 in WNW 2.0 mph 2.0 mph 86% 0.00 in 26 W/m2
06:46 48.7 °F 44.7 °F 29.91 in Calm   2.0 mph 86% 0.00 in 33 W/m2
06:52 48.5 °F 44.5 °F 29.92 in WNW 1.0 mph 1.0 mph 86% 0.00 in 44 W/m2
07:00 48.5 °F 44.5 °F 29.92 in WNW 1.0 mph 1.0 mph 86% 0.00 in 70 W/m2
07:06 48.7 °F 44.7 °F 29.92 in WNW 1.0 mph 1.0 mph 86% 0.00 in 63 W/m2
07:12 48.7 °F 44.7 °F 29.92 in Calm   1.0 mph 86% 0.00 in 74 W/m2
07:18 48.8 °F 44.8 °F 29.92 in Calm   2.0 mph 86% 0.00 in 69 W/m2
07:24 49.0 °F 45.3 °F 29.93 in Calm     87% 0.00 in 102 W/m2
07:30 49.3 °F 45.6 °F 29.93 in WNW 1.0 mph 1.0 mph 87% 0.00 in 91 W/m2
07:36 49.7 °F 45.7 °F 29.93 in WNW 1.0 mph 2.0 mph 86% 0.00 in 200 W/m2
07:42 50.4 °F 46.4 °F 29.93 in WNW 1.0 mph 2.0 mph 86% 0.00 in 237 W/m2
07:48 50.9 °F 45.9 °F 29.93 in WSW 2.0 mph 4.0 mph 83% 0.00 in 207 W/m2
07:54 51.3 °F 46.0 °F 29.93 in West 2.0 mph 4.0 mph 82% 0.00 in 230 W/m2
08:00 51.1 °F 44.5 °F 29.93 in West 3.0 mph 3.0 mph 78% 0.00 in 107 W/m2
08:06 50.7 °F 43.4 °F 29.94 in NNW 5.0 mph 11.0 mph 76% 0.00 in 120 W/m2
08:12 50.6 °F 43.0 °F 29.95 in West 5.0 mph 5.0 mph 75% 0.00 in 111 W/m2
08:18 50.7 °F 43.1 °F 29.95 in West 4.0 mph 6.0 mph 75% 0.00 in 165 W/m2
08:24 50.8 °F 42.8 °F 29.96 in NW 5.0 mph 6.0 mph 74% 0.00 in 330 W/m2
08:30 50.8 °F 41.7 °F 29.96 in West 6.0 mph 8.0 mph 71% 0.00 in 267 W/m2
08:36 50.8 °F 42.1 °F 29.97 in NNW 6.0 mph 12.0 mph 72% 0.00 in 378 W/m2
08:42 50.8 °F 41.7 °F 29.97 in West 6.0 mph 8.0 mph 71% 0.00 in 255 W/m2
08:50 50.7 °F 41.6 °F 29.97 in WNW 6.0 mph 6.0 mph 71% 0.00 in 257 W/m2
08:56 51.0 °F 41.9 °F 29.97 in NW 5.0 mph 6.0 mph 71% 0.00 in 267 W/m2
09:02 51.2 °F 41.4 °F 29.97 in WNW 4.0 mph 7.0 mph 69% 0.00 in 387 W/m2
09:08 51.5 °F 41.7 °F 29.98 in WNW 5.0 mph 7.0 mph 69% 0.00 in 403 W/m2
09:14 51.9 °F 42.0 °F 29.98 in WNW 5.0 mph 6.0 mph 69% 0.00 in 107 W/m2
09:20 51.7 °F 41.5 °F 29.98 in NW 4.0 mph 4.0 mph 68% 0.00 in 545 W/m2
09:26 52.2 °F 42.3 °F 29.98 in West 4.0 mph 4.0 mph 69% 0.00 in 227 W/m2
09:32 51.8 °F 41.9 °F 29.98 in WNW 5.0 mph 12.0 mph 69% 0.00 in 705 W/m2
09:38 51.7 °F 41.5 °F 29.98 in NW 5.0 mph 12.0 mph 68% 0.00 in 169 W/m2
09:44 51.4 °F 41.9 °F 29.99 in WNW 4.0 mph 5.0 mph 70% 0.00 in 225 W/m2
09:50 51.2 °F 42.1 °F 29.99 in NNW 4.0 mph 6.0 mph 71% 0.00 in 309 W/m2
09:56 50.7 °F 41.6 °F 30.00 in NW 6.0 mph 7.0 mph 71% 0.00 in 162 W/m2
10:02 51.5 °F 42.4 °F 30.00 in WSW 5.0 mph 6.0 mph 71% 0.00 in 858 W/m2
10:08 51.4 °F 41.9 °F 30.00 in WNW 5.0 mph 6.0 mph 70% 0.00 in 295 W/m2
10:14 51.7 °F 42.2 °F 30.01 in NNW 5.0 mph 9.0 mph 70% 0.00 in 454 W/m2
10:20 53.3 °F 43.0 °F 30.01 in WNW 5.0 mph 5.0 mph 68% 0.00 in 949 W/m2
10:26 52.0 °F 41.8 °F 30.01 in WNW 4.0 mph 5.0 mph 68% 0.00 in 216 W/m2
10:32 51.7 °F 41.9 °F 30.01 in WSW 4.0 mph 8.0 mph 69% 0.00 in 487 W/m2
10:38 52.0 °F 42.5 °F 30.01 in WNW 4.0 mph 8.0 mph 70% 0.00 in 251 W/m2
10:44 51.2 °F 41.4 °F 30.01 in West 3.0 mph 7.0 mph 69% 0.00 in 879 W/m2
10:50 52.5 °F 42.6 °F 30.01 in NW 4.0 mph 4.0 mph 69% 0.00 in 895 W/m2
10:56 51.8 °F 41.6 °F 30.01 in West 5.0 mph 6.0 mph 68% 0.00 in 895 W/m2
11:02 51.1 °F 40.5 °F 30.02 in WNW 5.0 mph 5.0 mph 67% 0.00 in 243 W/m2
11:08 51.5 °F 41.3 °F 30.03 in NNW 5.0 mph 7.0 mph 68% 0.00 in 243 W/m2
11:14 51.2 °F 41.4 °F 30.03 in NNW 5.0 mph 6.0 mph 69% 0.00 in 251 W/m2
11:20 52.7 °F 43.9 °F 30.03 in WNW 5.0 mph 5.0 mph 72% 0.00 in 1035 W/m2
11:26 52.0 °F 42.1 °F 30.03 in NW 4.0 mph 6.0 mph 69% 0.00 in 1069 W/m2
11:32 51.3 °F 41.1 °F 30.03 in NW 5.0 mph 5.0 mph 68% 0.00 in 292 W/m2
11:38 51.5 °F 41.7 °F 30.03 in WNW 5.0 mph 7.0 mph 69% 0.00 in 292 W/m2
11:44 51.1 °F 40.9 °F 30.03 in WNW 6.0 mph 8.0 mph 68% 0.00 in 264 W/m2
11:50 50.9 °F 41.5 °F 30.03 in WNW 6.0 mph 6.0 mph 70% 0.00 in 239 W/m2
11:56 50.9 °F 41.5 °F 30.04 in North 4.0 mph 6.0 mph 70% 0.00 in 267 W/m2
12:02 50.7 °F 40.5 °F 30.04 in NW 4.0 mph 7.0 mph 68% 0.00 in 316 W/m2
12:08 51.1 °F 40.9 °F 30.05 in WNW 5.0 mph 7.0 mph 68% 0.00 in 1100 W/m2
12:20 50.8 °F 39.8 °F 30.05 in WNW 5.0 mph 5.0 mph 66% 0.00 in 250 W/m2
12:26 52.1 °F 41.5 °F 30.05 in West 5.0 mph 6.0 mph 67% 0.00 in 1048 W/m2
12:32 52.2 °F 41.6 °F 30.05 in WNW 5.0 mph 7.0 mph 67% 0.00 in 510 W/m2
12:38 52.5 °F 40.3 °F 30.05 in West 4.0 mph 7.0 mph 63% 0.00 in 1179 W/m2
12:44 52.3 °F 41.3 °F 30.05 in WNW 4.0 mph 9.0 mph 66% 0.00 in 1116 W/m2
12:50 52.5 °F 42.2 °F 30.05 in NW 5.0 mph 5.0 mph 68% 0.00 in 1120 W/m2
12:56 52.3 °F 40.9 °F 30.05 in NW 5.0 mph 8.0 mph 65% 0.00 in 313 W/m2
13:02 51.6 °F 41.0 °F 30.05 in NNW 5.0 mph 8.0 mph 67% 0.00 in 360 W/m2
13:08 51.5 °F 40.5 °F 30.05 in WNW 4.0 mph 8.0 mph 66% 0.00 in 244 W/m2
13:14 52.5 °F 40.3 °F 30.05 in WNW 4.0 mph 8.0 mph 63% 0.00 in 997 W/m2
13:20 52.6 °F 40.8 °F 30.05 in WNW 5.0 mph 5.0 mph 64% 0.00 in 1030 W/m2
13:26 53.7 °F 41.4 °F 30.05 in WNW 5.0 mph 5.0 mph 63% 0.00 in 1088 W/m2
13:32 53.1 °F 40.8 °F 30.05 in North 5.0 mph 6.0 mph 63% 0.00 in 1088 W/m2
13:38 53.4 °F 41.9 °F 30.05 in West 5.0 mph 7.0 mph 65% 0.00 in 1053 W/m2
13:44 53.2 °F 41.3 °F 30.05 in West 5.0 mph 5.0 mph 64% 0.00 in 1060 W/m2
13:50 53.0 °F 41.1 °F 30.05 in NNW 5.0 mph 7.0 mph 64% 0.00 in 1072 W/m2
13:56 52.6 °F 40.8 °F 30.06 in WNW 6.0 mph 7.0 mph 64% 0.00 in 1032 W/m2
14:02 51.5 °F 39.7 °F 30.06 in West 5.0 mph 6.0 mph 64% 0.00 in 1018 W/m2
14:08 52.6 °F 41.6 °F 30.06 in WNW 5.0 mph 7.0 mph 66% 0.00 in 1044 W/m2
14:14 52.1 °F 39.5 °F 30.06 in WNW 5.0 mph 5.0 mph 62% 0.00 in 990 W/m2
14:20 53.3 °F 40.6 °F 30.06 in West 5.0 mph 5.0 mph 62% 0.00 in 976 W/m2
14:26 51.8 °F 39.6 °F 30.06 in North 5.0 mph 8.0 mph 63% 0.00 in 965 W/m2
14:32 51.7 °F 39.1 °F 30.06 in WNW 5.0 mph 5.0 mph 62% 0.00 in 283 W/m2
14:38 51.5 °F 39.3 °F 30.06 in West 5.0 mph 5.0 mph 63% 0.00 in 278 W/m2
14:44 52.0 °F 40.6 °F 30.06 in WNW 5.0 mph 8.0 mph 65% 0.00 in 933 W/m2
14:50 52.2 °F 38.7 °F 30.06 in West 5.0 mph 5.0 mph 60% 0.00 in 912 W/m2
14:56 52.8 °F 40.1 °F 30.06 in NW 5.0 mph 7.0 mph 62% 0.00 in 911 W/m2
15:02 52.4 °F 39.8 °F 30.06 in WNW 5.0 mph 5.0 mph 62% 0.00 in 285 W/m2
15:08 52.6 °F 41.2 °F 30.07 in WNW 5.0 mph 7.0 mph 65% 0.00 in 828 W/m2
15:14 52.1 °F 39.5 °F 30.07 in West 4.0 mph 5.0 mph 62% 0.00 in 1035 W/m2
15:20 53.1 °F 40.4 °F 30.07 in WNW 4.0 mph 4.0 mph 62% 0.00 in 991 W/m2
15:26 52.3 °F 39.7 °F 30.07 in WSW 4.0 mph 4.0 mph 62% 0.00 in 220 W/m2
15:32 51.6 °F 38.6 °F 30.07 in WNW 5.0 mph 6.0 mph 61% 0.00 in 257 W/m2
15:38 51.4 °F 38.8 °F 30.07 in NW 4.0 mph 6.0 mph 62% 0.00 in 308 W/m2
15:44 52.4 °F 40.2 °F 30.06 in West 4.0 mph 5.0 mph 63% 0.00 in 812 W/m2
15:50 52.6 °F 38.7 °F 30.07 in NW 4.0 mph 5.0 mph 59% 0.00 in 756 W/m2
15:56 53.3 °F 39.8 °F 30.07 in NW 4.0 mph 5.0 mph 60% 0.00 in 715 W/m2
16:04 52.9 °F 38.5 °F 30.07 in NW 4.0 mph 7.0 mph 58% 0.00 in 714 W/m2
16:10 51.7 °F 39.1 °F 30.07 in WNW 5.0 mph 5.0 mph 62% 0.00 in 107 W/m2
16:16 52.3 °F 39.7 °F 30.07 in WNW 5.0 mph 5.0 mph 62% 0.00 in 780 W/m2
16:22 52.9 °F 38.5 °F 30.08 in WSW 5.0 mph 5.0 mph 58% 0.00 in 148 W/m2
16:28 52.0 °F 39.0 °F 30.08 in WNW 5.0 mph 7.0 mph 61% 0.00 in 677 W/m2
16:34 52.9 °F 39.8 °F 30.08 in NNW 4.0 mph 5.0 mph 61% 0.00 in 631 W/m2
16:40 52.6 °F 38.2 °F 30.08 in WNW 5.0 mph 5.0 mph 58% 0.00 in 568 W/m2
16:46 52.1 °F 36.9 °F 30.08 in West 5.0 mph 5.0 mph 56% 0.00 in 246 W/m2
16:52 52.5 °F 37.7 °F 30.08 in WNW 4.0 mph 5.0 mph 57% 0.00 in 522 W/m2
16:58 52.8 °F 38.0 °F 30.08 in NW 4.0 mph 5.0 mph 57% 0.00 in 513 W/m2
17:04 53.2 °F 38.4 °F 30.09 in NW 4.0 mph 6.0 mph 57% 0.00 in 489 W/m2
17:10 53.0 °F 39.0 °F 30.09 in WNW 4.0 mph 4.0 mph 59% 0.00 in 469 W/m2
17:16 52.9 °F 37.6 °F 30.09 in West 4.0 mph 4.0 mph 56% 0.00 in 448 W/m2
17:22 52.3 °F 37.5 °F 30.09 in WNW 5.0 mph 5.0 mph 57% 0.00 in 429 W/m2
17:28 52.2 °F 37.9 °F 30.09 in West 4.0 mph 6.0 mph 58% 0.00 in 376 W/m2
17:34 52.7 °F 37.9 °F 30.09 in NW 3.0 mph 5.0 mph 57% 0.00 in 396 W/m2
17:40 52.5 °F 37.7 °F 30.09 in WNW 3.0 mph 8.0 mph 57% 0.00 in 374 W/m2
17:46 52.3 °F 37.1 °F 30.09 in West 4.0 mph 8.0 mph 56% 0.00 in 309 W/m2
17:52 52.1 °F 36.9 °F 30.09 in WNW 4.0 mph 4.0 mph 56% 0.00 in 211 W/m2
17:58 52.0 °F 35.9 °F 30.10 in West 4.0 mph 4.0 mph 54% 0.00 in 258 W/m2
18:04 51.9 °F 36.7 °F 30.10 in WNW 4.0 mph 9.0 mph 56% 0.00 in 211 W/m2
18:10 51.7 °F 36.0 °F 30.10 in West 4.0 mph 4.0 mph 55% 0.00 in 185 W/m2
18:16 51.6 °F 35.9 °F 30.11 in NW 4.0 mph 5.0 mph 55% 0.00 in 185 W/m2
18:22 51.0 °F 35.8 °F 30.11 in NW 5.0 mph 5.0 mph 56% 0.00 in 139 W/m2
18:28 50.6 °F 35.5 °F 30.11 in WNW 4.0 mph 6.0 mph 56% 0.00 in 104 W/m2
18:34 50.6 °F 34.6 °F 30.11 in NW 4.0 mph 6.0 mph 54% 0.00 in 111 W/m2
18:40 50.5 °F 34.5 °F 30.11 in WNW 4.0 mph 7.0 mph 54% 0.00 in 121 W/m2
18:46 50.2 °F 33.7 °F 30.11 in NNW 5.0 mph 9.0 mph 53% 0.00 in 86 W/m2
18:52 50.1 °F 34.5 °F 30.11 in West 4.0 mph 4.0 mph 55% 0.00 in 97 W/m2
18:58 49.8 °F 34.3 °F 30.11 in WNW 3.0 mph 8.0 mph 55% 0.00 in 91 W/m2
19:04 49.3 °F 34.7 °F 30.11 in WNW 3.0 mph 5.0 mph 57% 0.00 in 65 W/m2
19:10 49.1 °F 34.9 °F 30.11 in NW 2.0 mph 5.0 mph 58% 0.00 in 30 W/m2
19:16 48.7 °F 34.6 °F 30.11 in NNW 2.0 mph 5.0 mph 58% 0.00 in 19 W/m2
19:22 48.3 °F 34.2 °F 30.12 in WNW 2.0 mph 3.0 mph 58% 0.00 in 16 W/m2
19:28 48.0 °F 33.9 °F 30.12 in WNW 2.0 mph 4.0 mph 58% 0.00 in 14 W/m2
19:34 47.9 °F 34.3 °F 30.12 in WNW 3.0 mph 4.0 mph 59% 0.00 in 12 W/m2
19:40 47.7 °F 34.1 °F 30.13 in NW 2.0 mph 2.0 mph 59% 0.00 in 9 W/m2
19:46 47.4 °F 34.6 °F 30.13 in NW 1.0 mph 2.0 mph 61% 0.00 in 5 W/m2
19:52 47.0 °F 34.6 °F 30.13 in NW 1.0 mph 1.0 mph 62% 0.00 in 0 W/m2
19:58 46.5 °F 34.2 °F 30.13 in NW 1.0 mph 1.0 mph 62% 0.00 in 0 W/m2
20:04 46.2 °F 34.3 °F 30.13 in Calm   1.0 mph 63% 0.00 in 0 W/m2
20:10 45.9 °F 34.4 °F 30.14 in Calm     64% 0.00 in 0 W/m2
20:16 45.6 °F 34.5 °F 30.14 in Calm   1.0 mph 65% 0.00 in 0 W/m2
20:22 45.3 °F 34.2 °F 30.14 in Calm   1.0 mph 65% 0.00 in 0 W/m2
20:28 45.1 °F 34.4 °F 30.14 in Calm   1.0 mph 66% 0.00 in 0 W/m2
20:34 44.8 °F 34.1 °F 30.14 in Calm     66% 0.00 in 0 W/m2
20:40 44.5 °F 34.2 °F 30.15 in Calm     67% 0.00 in 0 W/m2
20:46 44.2 °F 34.3 °F 30.15 in Calm     68% 0.00 in 0 W/m2
20:52 43.9 °F 34.4 °F 30.15 in Calm     69% 0.00 in 0 W/m2
20:58 43.6 °F 34.1 °F 30.16 in Calm     69% 0.00 in 0 W/m2
21:04 43.3 °F 33.8 °F 30.16 in Calm     69% 0.00 in 0 W/m2
21:10 43.1 °F 34.0 °F 30.16 in Calm     70% 0.00 in 0 W/m2
21:16 43.1 °F 34.3 °F 30.16 in Calm     71% 0.00 in 0 W/m2
21:22 43.1 °F 34.3 °F 30.16 in Calm     71% 0.00 in 0 W/m2
21:28 43.1 °F 34.3 °F 30.16 in Calm     71% 0.00 in 0 W/m2
21:34 43.0 °F 34.2 °F 30.16 in Calm     71% 0.00 in 0 W/m2
21:40 43.0 °F 34.6 °F 30.16 in Calm   2.0 mph 72% 0.00 in 0 W/m2
21:46 43.1 °F 34.7 °F 30.17 in NW 1.0 mph 2.0 mph 72% 0.00 in 0 W/m2
21:52 43.0 °F 34.6 °F 30.17 in Calm     72% 0.00 in 0 W/m2
21:58 42.9 °F 34.5 °F 30.17 in Calm     72% 0.00 in 0 W/m2
22:04 42.7 °F 34.3 °F 30.18 in Calm   1.0 mph 72% 0.00 in 0 W/m2
22:10 42.5 °F 34.5 °F 30.18 in Calm     73% 0.00 in 0 W/m2
22:16 42.4 °F 34.4 °F 30.18 in Calm   2.0 mph 73% 0.00 in 0 W/m2
22:22 42.2 °F 34.2 °F 30.18 in Calm     73% 0.00 in 0 W/m2
22:28 42.0 °F 34.3 °F 30.18 in Calm   1.0 mph 74% 0.00 in 0 W/m2
22:34 41.8 °F 34.1 °F 30.18 in Calm     74% 0.00 in 0 W/m2
22:40 41.6 °F 34.3 °F 30.18 in Calm     75% 0.00 in 0 W/m2
22:46 41.4 °F 34.1 °F 30.18 in Calm   2.0 mph 75% 0.00 in 0 W/m2
22:52 41.2 °F 33.9 °F 30.18 in Calm   1.0 mph 75% 0.00 in 0 W/m2
22:58 41.0 °F 34.0 °F 30.18 in Calm   1.0 mph 76% 0.00 in 0 W/m2
23:04 40.8 °F 34.1 °F 30.19 in Calm     77% 0.00 in 0 W/m2
23:10 40.6 °F 34.3 °F 30.19 in Calm     78% 0.00 in 0 W/m2
23:16 40.4 °F 34.1 °F 30.19 in Calm   1.0 mph 78% 0.00 in 0 W/m2
23:22 40.3 °F 34.3 °F 30.19 in NW 1.0 mph 4.0 mph 79% 0.00 in 0 W/m2
23:28 40.2 °F 34.5 °F 30.19 in NW 1.0 mph 4.0 mph 80% 0.00 in 0 W/m2
23:34 40.1 °F 34.4 °F 30.19 in NW 1.0 mph 1.0 mph 80% 0.00 in 0 W/m2
23:40 40.0 °F 34.6 °F 30.20 in Calm   1.0 mph 81% 0.00 in 0 W/m2
23:46 39.9 °F 34.5 °F 30.20 in Calm   1.0 mph 81% 0.00 in 0 W/m2
23:52 39.6 °F 34.2 °F 30.20 in Calm     81% 0.00 in 0 W/m2
23:58 39.3 °F 34.3 °F 30.21 in Calm     82% 0.00 in 0 W/m2
Country Meadow, Clay, NY, USA
Compliments of Weather Underground - 2 mb